Skip Navigation Links Skip Navigation Links

Current Weather

Monroe Muni, Monroe, Wis.

For information only: do not use for flight planning or navigation.
Latest weather
Observation time Tuesday, October 19, 2021 3:35 AM CDT
Local time Tuesday, October 19, 2021 3:34 AM CDT
Flight conditions Visual Meteorological Conditions
Winds
Wind direction Southwest (230°)
Wind speed 7 mph
Visibility 10 mi.
Sky condition
Ceiling unlimited
Sky clear
Temperature 51°F
Dewpoint 43°F
Altimeter 30.06 in.Hg
Derived measurements
Relative humidity 74%
Density altitude 525 ft.
Remarks
Fully automated report.
Automated weather observing station with precipitation discriminator.
METAR KEFT 190835Z AUTO 23006KT 10SM CLR 11/06 A3006 RMK AO2 T01050061

Settings

Location code

InnerDrive.Weather 4.0.6770.0 Release CLR 4.0.30319.42000
Copyright ©2018 Inner Drive Technology. All rights reserved. Portions Copyright ©1986-2018 David Braverman.

Find weather

Site navigation


Skip Navigation Links

Place info

Page info

PayPal - The safer, easier way to pay online!

Return home.

Copyright ©2021 Inner Drive Technology. Purveyors of fine, hand-crafted computer software. Page printed 2021-10-19T08:34:44 UTC.